sensor_id;sensor_type;location;lat;lon;timestamp;P1;durP1;ratioP1;P2;durP2;ratioP2
36457;SDS011;22480;50.546;12.292;2023-10-31T00:01:50;34.60;;;19.88;;
36457;SDS011;22480;50.546;12.292;2023-10-31T00:04:16;38.72;;;20.33;;
36457;SDS011;22480;50.546;12.292;2023-10-31T00:06:42;27.05;;;18.38;;
36457;SDS011;22480;50.546;12.292;2023-10-31T00:09:08;24.23;;;15.40;;
36457;SDS011;22480;50.546;12.292;2023-10-31T00:11:36;21.73;;;14.00;;
36457;SDS011;22480;50.546;12.292;2023-10-31T00:14:02;20.55;;;13.63;;
36457;SDS011;22480;50.546;12.292;2023-10-31T00:16:28;18.35;;;12.75;;
36457;SDS011;22480;50.546;12.292;2023-10-31T00:18:54;19.35;;;13.48;;
36457;SDS011;22480;50.546;12.292;2023-10-31T00:21:20;17.00;;;11.95;;
36457;SDS011;22480;50.546;12.292;2023-10-31T00:23:46;15.13;;;11.70;;
36457;SDS011;22480;50.546;12.292;2023-10-31T00:26:13;19.30;;;11.23;;
36457;SDS011;22480;50.546;12.292;2023-10-31T00:28:46;16.08;;;10.70;;
36457;SDS011;22480;50.546;12.292;2023-10-31T00:31:12;15.07;;;9.68;;
36457;SDS011;22480;50.546;12.292;2023-10-31T00:33:38;13.93;;;9.60;;
36457;SDS011;22480;50.546;12.292;2023-10-31T00:36:04;16.20;;;10.65;;
36457;SDS011;22480;50.546;12.292;2023-10-31T00:38:30;13.65;;;8.93;;
36457;SDS011;22480;50.546;12.292;2023-10-31T00:40:56;12.63;;;8.90;;
36457;SDS011;22480;50.546;12.292;2023-10-31T00:43:21;15.95;;;8.68;;
36457;SDS011;22480;50.546;12.292;2023-10-31T00:45:47;12.98;;;7.82;;
36457;SDS011;22480;50.546;12.292;2023-10-31T00:48:13;12.88;;;8.32;;
36457;SDS011;22480;50.546;12.292;2023-10-31T00:50:39;10.15;;;7.80;;
36457;SDS011;22480;50.546;12.292;2023-10-31T00:53:04;14.32;;;8.77;;
36457;SDS011;22480;50.546;12.292;2023-10-31T00:55:30;13.40;;;8.43;;
36457;SDS011;22480;50.546;12.292;2023-10-31T00:57:56;12.52;;;8.32;;
36457;SDS011;22480;50.546;12.292;2023-10-31T01:00:22;12.13;;;8.65;;
36457;SDS011;22480;50.546;12.292;2023-10-31T01:02:47;11.82;;;8.25;;
36457;SDS011;22480;50.546;12.292;2023-10-31T01:05:13;10.63;;;8.00;;
36457;SDS011;22480;50.546;12.292;2023-10-31T01:07:39;10.82;;;7.72;;
36457;SDS011;22480;50.546;12.292;2023-10-31T01:10:05;11.52;;;7.13;;
36457;SDS011;22480;50.546;12.292;2023-10-31T01:12:31;10.57;;;7.03;;
36457;SDS011;22480;50.546;12.292;2023-10-31T01:14:57;9.15;;;6.85;;
36457;SDS011;22480;50.546;12.292;2023-10-31T01:17:23;9.57;;;7.28;;
36457;SDS011;22480;50.546;12.292;2023-10-31T01:19:49;7.78;;;6.28;;
36457;SDS011;22480;50.546;12.292;2023-10-31T01:22:15;7.15;;;6.45;;
36457;SDS011;22480;50.546;12.292;2023-10-31T01:24:40;8.02;;;5.88;;
36457;SDS011;22480;50.546;12.292;2023-10-31T01:27:06;7.82;;;6.05;;
36457;SDS011;22480;50.546;12.292;2023-10-31T01:29:32;7.70;;;5.40;;
36457;SDS011;22480;50.546;12.292;2023-10-31T01:31:58;9.63;;;6.45;;
36457;SDS011;22480;50.546;12.292;2023-10-31T01:34:23;14.02;;;6.13;;
36457;SDS011;22480;50.546;12.292;2023-10-31T01:36:49;6.45;;;5.32;;
36457;SDS011;22480;50.546;12.292;2023-10-31T01:39:15;7.18;;;5.43;;
36457;SDS011;22480;50.546;12.292;2023-10-31T01:41:41;6.90;;;5.10;;
36457;SDS011;22480;50.546;12.292;2023-10-31T01:44:08;6.65;;;5.03;;
36457;SDS011;22480;50.546;12.292;2023-10-31T01:46:35;5.60;;;5.03;;
36457;SDS011;22480;50.546;12.292;2023-10-31T01:49:00;7.57;;;4.70;;
36457;SDS011;22480;50.546;12.292;2023-10-31T01:51:28;5.18;;;4.22;;
36457;SDS011;22480;50.546;12.292;2023-10-31T01:53:54;5.43;;;4.93;;
36457;SDS011;22480;50.546;12.292;2023-10-31T01:56:21;5.50;;;4.72;;
36457;SDS011;22480;50.546;12.292;2023-10-31T01:58:48;5.97;;;4.15;;
36457;SDS011;22480;50.546;12.292;2023-10-31T02:01:15;5.22;;;4.13;;
36457;SDS011;22480;50.546;12.292;2023-10-31T02:03:41;4.45;;;4.03;;
36457;SDS011;22480;50.546;12.292;2023-10-31T02:06:07;4.75;;;4.20;;
36457;SDS011;22480;50.546;12.292;2023-10-31T02:08:33;7.32;;;4.47;;
36457;SDS011;22480;50.546;12.292;2023-10-31T02:10:59;4.70;;;3.90;;
36457;SDS011;22480;50.546;12.292;2023-10-31T02:13:25;4.75;;;4.22;;
36457;SDS011;22480;50.546;12.292;2023-10-31T02:15:51;6.05;;;4.22;;
36457;SDS011;22480;50.546;12.292;2023-10-31T02:18:17;5.40;;;4.38;;
36457;SDS011;22480;50.546;12.292;2023-10-31T02:20:43;7.07;;;4.25;;
36457;SDS011;22480;50.546;12.292;2023-10-31T02:23:09;6.03;;;4.47;;
36457;SDS011;22480;50.546;12.292;2023-10-31T02:25:35;5.05;;;4.55;;
36457;SDS011;22480;50.546;12.292;2023-10-31T02:28:01;6.20;;;4.43;;
36457;SDS011;22480;50.546;12.292;2023-10-31T02:30:26;6.47;;;5.22;;
36457;SDS011;22480;50.546;12.292;2023-10-31T02:32:53;5.72;;;4.18;;
36457;SDS011;22480;50.546;12.292;2023-10-31T02:35:19;5.68;;;4.57;;
36457;SDS011;22480;50.546;12.292;2023-10-31T02:37:51;9.85;;;5.40;;
36457;SDS011;22480;50.546;12.292;2023-10-31T02:40:17;4.40;;;4.00;;
36457;SDS011;22480;50.546;12.292;2023-10-31T02:42:43;4.00;;;3.50;;
36457;SDS011;22480;50.546;12.292;2023-10-31T02:45:10;6.85;;;3.55;;
36457;SDS011;22480;50.546;12.292;2023-10-31T02:47:36;5.43;;;3.70;;
36457;SDS011;22480;50.546;12.292;2023-10-31T02:50:01;3.40;;;3.05;;
36457;SDS011;22480;50.546;12.292;2023-10-31T02:52:27;3.28;;;2.80;;
36457;SDS011;22480;50.546;12.292;2023-10-31T02:54:53;3.45;;;2.65;;
36457;SDS011;22480;50.546;12.292;2023-10-31T02:57:20;3.83;;;2.38;;
36457;SDS011;22480;50.546;12.292;2023-10-31T02:59:46;2.13;;;1.88;;
36457;SDS011;22480;50.546;12.292;2023-10-31T03:02:12;2.20;;;1.80;;
36457;SDS011;22480;50.546;12.292;2023-10-31T03:04:37;1.98;;;1.77;;
36457;SDS011;22480;50.546;12.292;2023-10-31T03:07:03;2.00;;;1.67;;
36457;SDS011;22480;50.546;12.292;2023-10-31T03:09:29;4.50;;;1.45;;
36457;SDS011;22480;50.546;12.292;2023-10-31T03:11:55;2.20;;;1.33;;
36457;SDS011;22480;50.546;12.292;2023-10-31T03:14:21;3.05;;;1.70;;
36457;SDS011;22480;50.546;12.292;2023-10-31T03:16:46;2.30;;;2.10;;
36457;SDS011;22480;50.546;12.292;2023-10-31T03:19:12;2.22;;;1.98;;
36457;SDS011;22480;50.546;12.292;2023-10-31T03:21:38;4.80;;;2.08;;
36457;SDS011;22480;50.546;12.292;2023-10-31T03:24:04;2.60;;;2.08;;
36457;SDS011;22480;50.546;12.292;2023-10-31T03:26:30;3.22;;;2.20;;
36457;SDS011;22480;50.546;12.292;2023-10-31T03:28:56;2.15;;;1.83;;
36457;SDS011;22480;50.546;12.292;2023-10-31T03:31:25;3.20;;;2.10;;
36457;SDS011;22480;50.546;12.292;2023-10-31T03:33:51;12.40;;;2.83;;
36457;SDS011;22480;50.546;12.292;2023-10-31T03:36:17;2.90;;;1.90;;
36457;SDS011;22480;50.546;12.292;2023-10-31T03:38:42;2.00;;;1.85;;
36457;SDS011;22480;50.546;12.292;2023-10-31T03:41:08;2.75;;;1.95;;
36457;SDS011;22480;50.546;12.292;2023-10-31T03:43:34;6.63;;;1.85;;
36457;SDS011;22480;50.546;12.292;2023-10-31T03:46:00;6.65;;;1.70;;
36457;SDS011;22480;50.546;12.292;2023-10-31T03:48:26;3.50;;;1.50;;
36457;SDS011;22480;50.546;12.292;2023-10-31T03:50:52;1.40;;;1.30;;
36457;SDS011;22480;50.546;12.292;2023-10-31T03:53:18;3.42;;;1.40;;
36457;SDS011;22480;50.546;12.292;2023-10-31T03:55:44;1.60;;;1.50;;
36457;SDS011;22480;50.546;12.292;2023-10-31T03:58:10;1.23;;;1.13;;
36457;SDS011;22480;50.546;12.292;2023-10-31T04:00:36;2.13;;;1.17;;
36457;SDS011;22480;50.546;12.292;2023-10-31T04:03:03;1.10;;;0.93;;
36457;SDS011;22480;50.546;12.292;2023-10-31T04:05:29;1.58;;;0.95;;
36457;SDS011;22480;50.546;12.292;2023-10-31T04:07:55;1.50;;;0.95;;
36457;SDS011;22480;50.546;12.292;2023-10-31T04:10:21;2.85;;;0.85;;
36457;SDS011;22480;50.546;12.292;2023-10-31T04:12:47;1.17;;;0.90;;
36457;SDS011;22480;50.546;12.292;2023-10-31T04:15:13;1.90;;;1.23;;
36457;SDS011;22480;50.546;12.292;2023-10-31T04:17:39;1.20;;;0.77;;
36457;SDS011;22480;50.546;12.292;2023-10-31T04:20:05;1.77;;;0.75;;
36457;SDS011;22480;50.546;12.292;2023-10-31T04:22:31;1.08;;;0.88;;
36457;SDS011;22480;50.546;12.292;2023-10-31T04:24:57;1.02;;;0.80;;
36457;SDS011;22480;50.546;12.292;2023-10-31T04:27:23;1.23;;;0.80;;
36457;SDS011;22480;50.546;12.292;2023-10-31T04:29:48;1.02;;;0.80;;
36457;SDS011;22480;50.546;12.292;2023-10-31T04:32:14;0.77;;;0.77;;
36457;SDS011;22480;50.546;12.292;2023-10-31T04:34:40;1.35;;;0.70;;
36457;SDS011;22480;50.546;12.292;2023-10-31T04:37:06;1.08;;;0.70;;
36457;SDS011;22480;50.546;12.292;2023-10-31T04:39:32;0.73;;;0.70;;
36457;SDS011;22480;50.546;12.292;2023-10-31T04:41:57;1.20;;;0.70;;
36457;SDS011;22480;50.546;12.292;2023-10-31T04:44:23;3.05;;;0.60;;
36457;SDS011;22480;50.546;12.292;2023-10-31T04:46:49;0.70;;;0.60;;
36457;SDS011;22480;50.546;12.292;2023-10-31T04:49:15;0.70;;;0.70;;
36457;SDS011;22480;50.546;12.292;2023-10-31T04:51:40;1.95;;;0.50;;
36457;SDS011;22480;50.546;12.292;2023-10-31T04:54:07;1.08;;;0.60;;
36457;SDS011;22480;50.546;12.292;2023-10-31T04:56:33;0.60;;;0.55;;
36457;SDS011;22480;50.546;12.292;2023-10-31T04:58:58;1.70;;;0.70;;
36457;SDS011;22480;50.546;12.292;2023-10-31T05:01:24;0.60;;;0.60;;
36457;SDS011;22480;50.546;12.292;2023-10-31T05:03:50;0.55;;;0.55;;
36457;SDS011;22480;50.546;12.292;2023-10-31T05:06:20;1.55;;;0.68;;
36457;SDS011;22480;50.546;12.292;2023-10-31T05:08:46;1.27;;;0.90;;
36457;SDS011;22480;50.546;12.292;2023-10-31T05:11:12;0.70;;;0.70;;
36457;SDS011;22480;50.546;12.292;2023-10-31T05:13:39;1.00;;;0.90;;
36457;SDS011;22480;50.546;12.292;2023-10-31T05:16:05;1.33;;;0.80;;
36457;SDS011;22480;50.546;12.292;2023-10-31T05:18:31;4.82;;;1.63;;
36457;SDS011;22480;50.546;12.292;2023-10-31T05:20:57;0.70;;;0.70;;
36457;SDS011;22480;50.546;12.292;2023-10-31T05:23:22;1.20;;;1.10;;
36457;SDS011;22480;50.546;12.292;2023-10-31T05:25:48;0.82;;;0.70;;
36457;SDS011;22480;50.546;12.292;2023-10-31T05:28:14;0.80;;;0.80;;
36457;SDS011;22480;50.546;12.292;2023-10-31T05:30:40;1.00;;;0.85;;
36457;SDS011;22480;50.546;12.292;2023-10-31T05:33:05;1.02;;;0.85;;
36457;SDS011;22480;50.546;12.292;2023-10-31T05:35:33;2.03;;;0.80;;
36457;SDS011;22480;50.546;12.292;2023-10-31T05:37:59;1.05;;;0.50;;
36457;SDS011;22480;50.546;12.292;2023-10-31T05:40:24;2.65;;;0.88;;
36457;SDS011;22480;50.546;12.292;2023-10-31T05:42:52;0.70;;;0.60;;
36457;SDS011;22480;50.546;12.292;2023-10-31T05:45:18;0.68;;;0.50;;
36457;SDS011;22480;50.546;12.292;2023-10-31T05:47:44;0.90;;;0.70;;
36457;SDS011;22480;50.546;12.292;2023-10-31T05:50:09;1.10;;;0.60;;
36457;SDS011;22480;50.546;12.292;2023-10-31T05:52:35;1.17;;;0.88;;
36457;SDS011;22480;50.546;12.292;2023-10-31T05:55:01;0.63;;;0.50;;
36457;SDS011;22480;50.546;12.292;2023-10-31T05:57:27;0.50;;;0.50;;
36457;SDS011;22480;50.546;12.292;2023-10-31T05:59:53;0.68;;;0.60;;
36457;SDS011;22480;50.546;12.292;2023-10-31T06:02:19;4.53;;;1.08;;
36457;SDS011;22480;50.546;12.292;2023-10-31T06:04:44;0.85;;;0.80;;
36457;SDS011;22480;50.546;12.292;2023-10-31T06:07:10;2.85;;;0.50;;
36457;SDS011;22480;50.546;12.292;2023-10-31T06:09:36;1.65;;;0.40;;
36457;SDS011;22480;50.546;12.292;2023-10-31T06:12:02;1.75;;;0.80;;
36457;SDS011;22480;50.546;12.292;2023-10-31T06:14:28;0.30;;;0.30;;
36457;SDS011;22480;50.546;12.292;2023-10-31T06:16:54;0.90;;;0.52;;
36457;SDS011;22480;50.546;12.292;2023-10-31T06:19:21;0.45;;;0.40;;
36457;SDS011;22480;50.546;12.292;2023-10-31T06:21:47;2.15;;;0.43;;
36457;SDS011;22480;50.546;12.292;2023-10-31T06:24:13;0.63;;;0.50;;
36457;SDS011;22480;50.546;12.292;2023-10-31T06:26:39;0.60;;;0.60;;
36457;SDS011;22480;50.546;12.292;2023-10-31T06:29:05;0.40;;;0.40;;
36457;SDS011;22480;50.546;12.292;2023-10-31T06:31:31;1.10;;;0.60;;
36457;SDS011;22480;50.546;12.292;2023-10-31T06:33:56;2.00;;;0.90;;
36457;SDS011;22480;50.546;12.292;2023-10-31T06:36:22;0.50;;;0.50;;
36457;SDS011;22480;50.546;12.292;2023-10-31T06:38:48;1.00;;;0.50;;
36457;SDS011;22480;50.546;12.292;2023-10-31T06:41:13;1.25;;;0.50;;
36457;SDS011;22480;50.546;12.292;2023-10-31T06:43:39;1.83;;;0.50;;
36457;SDS011;22480;50.546;12.292;2023-10-31T06:46:05;2.15;;;0.75;;
36457;SDS011;22480;50.546;12.292;2023-10-31T06:48:32;1.05;;;0.70;;
36457;SDS011;22480;50.546;12.292;2023-10-31T06:50:57;0.75;;;0.55;;
36457;SDS011;22480;50.546;12.292;2023-10-31T06:53:23;0.80;;;0.80;;
36457;SDS011;22480;50.546;12.292;2023-10-31T06:55:49;1.15;;;0.70;;
36457;SDS011;22480;50.546;12.292;2023-10-31T06:58:15;0.80;;;0.68;;
36457;SDS011;22480;50.546;12.292;2023-10-31T07:00:40;0.82;;;0.55;;
36457;SDS011;22480;50.546;12.292;2023-10-31T07:03:06;0.45;;;0.45;;
36457;SDS011;22480;50.546;12.292;2023-10-31T07:05:37;0.75;;;0.75;;
36457;SDS011;22480;50.546;12.292;2023-10-31T07:08:03;0.77;;;0.65;;
36457;SDS011;22480;50.546;12.292;2023-10-31T07:10:29;1.33;;;0.85;;
36457;SDS011;22480;50.546;12.292;2023-10-31T07:12:55;0.75;;;0.50;;
36457;SDS011;22480;50.546;12.292;2023-10-31T07:15:22;1.23;;;0.57;;
36457;SDS011;22480;50.546;12.292;2023-10-31T07:17:47;2.03;;;0.60;;
36457;SDS011;22480;50.546;12.292;2023-10-31T07:20:13;1.35;;;0.90;;
36457;SDS011;22480;50.546;12.292;2023-10-31T07:22:39;3.53;;;0.93;;
36457;SDS011;22480;50.546;12.292;2023-10-31T07:25:05;1.30;;;0.70;;
36457;SDS011;22480;50.546;12.292;2023-10-31T07:27:32;0.60;;;0.60;;
36457;SDS011;22480;50.546;12.292;2023-10-31T07:29:57;1.25;;;0.90;;
36457;SDS011;22480;50.546;12.292;2023-10-31T07:32:23;2.72;;;1.10;;
36457;SDS011;22480;50.546;12.292;2023-10-31T07:34:50;0.60;;;0.60;;
36457;SDS011;22480;50.546;12.292;2023-10-31T07:37:15;4.90;;;0.90;;
36457;SDS011;22480;50.546;12.292;2023-10-31T07:39:41;0.93;;;0.60;;
36457;SDS011;22480;50.546;12.292;2023-10-31T07:42:07;0.75;;;0.50;;
36457;SDS011;22480;50.546;12.292;2023-10-31T07:44:34;1.20;;;0.70;;
36457;SDS011;22480;50.546;12.292;2023-10-31T07:47:00;0.40;;;0.40;;
36457;SDS011;22480;50.546;12.292;2023-10-31T07:49:26;0.40;;;0.40;;
36457;SDS011;22480;50.546;12.292;2023-10-31T07:51:51;0.98;;;0.50;;
36457;SDS011;22480;50.546;12.292;2023-10-31T07:54:17;3.92;;;0.50;;
36457;SDS011;22480;50.546;12.292;2023-10-31T07:56:43;0.25;;;0.25;;
36457;SDS011;22480;50.546;12.292;2023-10-31T07:59:09;0.38;;;0.38;;
36457;SDS011;22480;50.546;12.292;2023-10-31T08:01:36;0.40;;;0.40;;
36457;SDS011;22480;50.546;12.292;2023-10-31T08:04:02;1.27;;;0.50;;
36457;SDS011;22480;50.546;12.292;2023-10-31T08:06:28;1.13;;;0.50;;
36457;SDS011;22480;50.546;12.292;2023-10-31T08:08:54;1.40;;;0.57;;
36457;SDS011;22480;50.546;12.292;2023-10-31T08:11:20;1.92;;;0.50;;
36457;SDS011;22480;50.546;12.292;2023-10-31T08:13:46;0.77;;;0.50;;
36457;SDS011;22480;50.546;12.292;2023-10-31T08:16:16;1.17;;;0.35;;
36457;SDS011;22480;50.546;12.292;2023-10-31T08:18:43;0.98;;;0.73;;
36457;SDS011;22480;50.546;12.292;2023-10-31T08:21:10;0.63;;;0.52;;
36457;SDS011;22480;50.546;12.292;2023-10-31T08:23:37;0.40;;;0.40;;
36457;SDS011;22480;50.546;12.292;2023-10-31T08:26:02;0.50;;;0.50;;
36457;SDS011;22480;50.546;12.292;2023-10-31T08:28:29;0.95;;;0.50;;
36457;SDS011;22480;50.546;12.292;2023-10-31T08:30:56;6.15;;;0.98;;
36457;SDS011;22480;50.546;12.292;2023-10-31T08:33:22;1.42;;;0.70;;
36457;SDS011;22480;50.546;12.292;2023-10-31T08:35:48;0.38;;;0.38;;
36457;SDS011;22480;50.546;12.292;2023-10-31T08:38:14;1.50;;;0.50;;
36457;SDS011;22480;50.546;12.292;2023-10-31T08:40:40;0.82;;;0.60;;
36457;SDS011;22480;50.546;12.292;2023-10-31T08:43:06;0.98;;;0.50;;
36457;SDS011;22480;50.546;12.292;2023-10-31T08:45:32;0.57;;;0.40;;
36457;SDS011;22480;50.546;12.292;2023-10-31T08:47:59;0.43;;;0.30;;
36457;SDS011;22480;50.546;12.292;2023-10-31T08:50:25;1.00;;;0.55;;
36457;SDS011;22480;50.546;12.292;2023-10-31T08:52:51;0.93;;;0.60;;
36457;SDS011;22480;50.546;12.292;2023-10-31T08:55:17;2.47;;;0.60;;
36457;SDS011;22480;50.546;12.292;2023-10-31T08:57:43;1.20;;;0.50;;
36457;SDS011;22480;50.546;12.292;2023-10-31T09:00:09;2.40;;;0.95;;
36457;SDS011;22480;50.546;12.292;2023-10-31T09:02:35;0.82;;;0.57;;
36457;SDS011;22480;50.546;12.292;2023-10-31T09:05:01;1.65;;;1.10;;
36457;SDS011;22480;50.546;12.292;2023-10-31T09:07:26;3.95;;;1.63;;
36457;SDS011;22480;50.546;12.292;2023-10-31T09:09:52;0.77;;;0.60;;
36457;SDS011;22480;50.546;12.292;2023-10-31T09:12:18;1.20;;;0.70;;
36457;SDS011;22480;50.546;12.292;2023-10-31T09:14:44;1.27;;;1.17;;
36457;SDS011;22480;50.546;12.292;2023-10-31T09:17:10;2.40;;;1.10;;
36457;SDS011;22480;50.546;12.292;2023-10-31T09:19:36;1.38;;;1.00;;
36457;SDS011;22480;50.546;12.292;2023-10-31T09:22:02;2.58;;;1.27;;
36457;SDS011;22480;50.546;12.292;2023-10-31T09:24:27;1.58;;;1.00;;
36457;SDS011;22480;50.546;12.292;2023-10-31T09:26:53;2.28;;;1.75;;
36457;SDS011;22480;50.546;12.292;2023-10-31T09:29:20;1.10;;;0.70;;
36457;SDS011;22480;50.546;12.292;2023-10-31T09:31:46;2.25;;;1.55;;
36457;SDS011;22480;50.546;12.292;2023-10-31T09:34:12;2.30;;;1.23;;
36457;SDS011;22480;50.546;12.292;2023-10-31T09:36:39;3.42;;;1.90;;
36457;SDS011;22480;50.546;12.292;2023-10-31T09:39:05;2.58;;;1.60;;
36457;SDS011;22480;50.546;12.292;2023-10-31T09:41:31;1.35;;;1.13;;
36457;SDS011;22480;50.546;12.292;2023-10-31T09:43:59;1.50;;;1.00;;
36457;SDS011;22480;50.546;12.292;2023-10-31T09:46:26;1.10;;;0.95;;
36457;SDS011;22480;50.546;12.292;2023-10-31T09:48:53;2.17;;;0.50;;
36457;SDS011;22480;50.546;12.292;2023-10-31T09:51:21;1.15;;;0.90;;
36457;SDS011;22480;50.546;12.292;2023-10-31T09:53:47;0.80;;;0.77;;
36457;SDS011;22480;50.546;12.292;2023-10-31T09:56:13;0.60;;;0.50;;
36457;SDS011;22480;50.546;12.292;2023-10-31T09:58:40;0.93;;;0.60;;
36457;SDS011;22480;50.546;12.292;2023-10-31T10:01:06;2.45;;;1.20;;
36457;SDS011;22480;50.546;12.292;2023-10-31T10:03:33;0.43;;;0.40;;
36457;SDS011;22480;50.546;12.292;2023-10-31T10:05:59;0.68;;;0.40;;
36457;SDS011;22480;50.546;12.292;2023-10-31T10:08:27;0.55;;;0.45;;
36457;SDS011;22480;50.546;12.292;2023-10-31T10:10:53;0.65;;;0.60;;
36457;SDS011;22480;50.546;12.292;2023-10-31T10:13:20;2.30;;;0.63;;
36457;SDS011;22480;50.546;12.292;2023-10-31T10:18:26;2.28;;;0.70;;
36457;SDS011;22480;50.546;12.292;2023-10-31T10:21:02;0.57;;;0.50;;
36457;SDS011;22480;50.546;12.292;2023-10-31T10:23:29;0.40;;;0.40;;
36457;SDS011;22480;50.546;12.292;2023-10-31T10:25:56;0.60;;;0.50;;
36457;SDS011;22480;50.546;12.292;2023-10-31T10:28:23;0.57;;;0.50;;
36457;SDS011;22480;50.546;12.292;2023-10-31T10:30:53;0.43;;;0.40;;
36457;SDS011;22480;50.546;12.292;2023-10-31T10:33:19;0.63;;;0.40;;
36457;SDS011;22480;50.546;12.292;2023-10-31T10:35:46;1.77;;;0.80;;
36457;SDS011;22480;50.546;12.292;2023-10-31T10:38:12;2.25;;;0.60;;
36457;SDS011;22480;50.546;12.292;2023-10-31T10:40:42;0.45;;;0.40;;
36457;SDS011;22480;50.546;12.292;2023-10-31T10:43:23;0.43;;;0.35;;
36457;SDS011;22480;50.546;12.292;2023-10-31T10:45:52;0.65;;;0.45;;
36457;SDS011;22480;50.546;12.292;2023-10-31T10:48:18;0.70;;;0.40;;
36457;SDS011;22480;50.546;12.292;2023-10-31T10:50:46;1.65;;;1.08;;
36457;SDS011;22480;50.546;12.292;2023-10-31T10:53:21;1.80;;;1.10;;
36457;SDS011;22480;50.546;12.292;2023-10-31T10:55:55;0.60;;;0.60;;
36457;SDS011;22480;50.546;12.292;2023-10-31T10:58:44;1.63;;;0.82;;
36457;SDS011;22480;50.546;12.292;2023-10-31T11:01:51;2.03;;;0.60;;
36457;SDS011;22480;50.546;12.292;2023-10-31T11:04:18;0.80;;;0.50;;
36457;SDS011;22480;50.546;12.292;2023-10-31T11:06:44;0.80;;;0.55;;
36457;SDS011;22480;50.546;12.292;2023-10-31T11:09:11;0.60;;;0.60;;
36457;SDS011;22480;50.546;12.292;2023-10-31T11:11:38;0.80;;;0.55;;
36457;SDS011;22480;50.546;12.292;2023-10-31T11:14:05;0.88;;;0.60;;
36457;SDS011;22480;50.546;12.292;2023-10-31T11:16:44;4.07;;;0.50;;
36457;SDS011;22480;50.546;12.292;2023-10-31T11:19:14;0.50;;;0.50;;
36457;SDS011;22480;50.546;12.292;2023-10-31T11:22:00;0.70;;;0.40;;
36457;SDS011;22480;50.546;12.292;2023-10-31T11:24:48;0.38;;;0.38;;
36457;SDS011;22480;50.546;12.292;2023-10-31T11:27:16;0.80;;;0.47;;
36457;SDS011;22480;50.546;12.292;2023-10-31T11:29:43;0.52;;;0.40;;
36457;SDS011;22480;50.546;12.292;2023-10-31T11:32:09;0.50;;;0.50;;
36457;SDS011;22480;50.546;12.292;2023-10-31T11:34:39;0.60;;;0.52;;
36457;SDS011;22480;50.546;12.292;2023-10-31T11:37:21;0.50;;;0.50;;
36457;SDS011;22480;50.546;12.292;2023-10-31T11:48:14;0.63;;;0.60;;
36457;SDS011;22480;50.546;12.292;2023-10-31T11:50:41;1.42;;;0.85;;
36457;SDS011;22480;50.546;12.292;2023-10-31T11:53:08;0.80;;;0.68;;
36457;SDS011;22480;50.546;12.292;2023-10-31T11:55:39;1.00;;;0.50;;
36457;SDS011;22480;50.546;12.292;2023-10-31T12:00:48;3.15;;;0.85;;
36457;SDS011;22480;50.546;12.292;2023-10-31T12:03:19;1.30;;;0.77;;
36457;SDS011;22480;50.546;12.292;2023-10-31T12:05:56;0.52;;;0.45;;
36457;SDS011;22480;50.546;12.292;2023-10-31T12:08:29;2.95;;;0.80;;
36457;SDS011;22480;50.546;12.292;2023-10-31T12:11:13;1.90;;;0.70;;
36457;SDS011;22480;50.546;12.292;2023-10-31T12:13:53;2.70;;;0.73;;
36457;SDS011;22480;50.546;12.292;2023-10-31T12:16:22;0.70;;;0.45;;
36457;SDS011;22480;50.546;12.292;2023-10-31T12:18:53;1.23;;;0.70;;
36457;SDS011;22480;50.546;12.292;2023-10-31T12:21:41;0.65;;;0.63;;
36457;SDS011;22480;50.546;12.292;2023-10-31T12:24:15;1.10;;;0.63;;
36457;SDS011;22480;50.546;12.292;2023-10-31T12:26:42;5.57;;;0.80;;
36457;SDS011;22480;50.546;12.292;2023-10-31T12:29:13;0.80;;;0.47;;
36457;SDS011;22480;50.546;12.292;2023-10-31T12:32:01;2.55;;;0.60;;
36457;SDS011;22480;50.546;12.292;2023-10-31T12:34:28;0.77;;;0.60;;
36457;SDS011;22480;50.546;12.292;2023-10-31T12:36:54;1.17;;;0.60;;
36457;SDS011;22480;50.546;12.292;2023-10-31T12:39:23;2.80;;;0.60;;
36457;SDS011;22480;50.546;12.292;2023-10-31T12:41:51;0.65;;;0.55;;
36457;SDS011;22480;50.546;12.292;2023-10-31T12:44:19;1.00;;;0.88;;
36457;SDS011;22480;50.546;12.292;2023-10-31T12:46:48;0.63;;;0.43;;
36457;SDS011;22480;50.546;12.292;2023-10-31T12:49:17;1.08;;;0.50;;
36457;SDS011;22480;50.546;12.292;2023-10-31T12:51:56;1.80;;;0.90;;
36457;SDS011;22480;50.546;12.292;2023-10-31T12:54:30;0.95;;;0.70;;
36457;SDS011;22480;50.546;12.292;2023-10-31T12:57:06;0.60;;;0.50;;
36457;SDS011;22480;50.546;12.292;2023-10-31T12:59:33;1.73;;;0.80;;
36457;SDS011;22480;50.546;12.292;2023-10-31T13:02:01;1.65;;;1.15;;
36457;SDS011;22480;50.546;12.292;2023-10-31T13:04:29;1.48;;;0.90;;
36457;SDS011;22480;50.546;12.292;2023-10-31T13:07:03;1.05;;;0.80;;
36457;SDS011;22480;50.546;12.292;2023-10-31T13:09:31;5.72;;;1.23;;
36457;SDS011;22480;50.546;12.292;2023-10-31T13:11:58;4.05;;;1.30;;
36457;SDS011;22480;50.546;12.292;2023-10-31T13:14:31;3.05;;;0.80;;
36457;SDS011;22480;50.546;12.292;2023-10-31T13:16:59;1.73;;;0.70;;
36457;SDS011;22480;50.546;12.292;2023-10-31T13:19:25;4.78;;;1.85;;
36457;SDS011;22480;50.546;12.292;2023-10-31T13:21:51;2.70;;;2.10;;
36457;SDS011;22480;50.546;12.292;2023-10-31T13:24:17;0.63;;;0.60;;
36457;SDS011;22480;50.546;12.292;2023-10-31T13:26:44;2.33;;;0.90;;
36457;SDS011;22480;50.546;12.292;2023-10-31T13:29:10;2.72;;;0.90;;
36457;SDS011;22480;50.546;12.292;2023-10-31T13:31:36;1.52;;;1.08;;
36457;SDS011;22480;50.546;12.292;2023-10-31T13:34:03;0.70;;;0.70;;
36457;SDS011;22480;50.546;12.292;2023-10-31T13:36:28;1.35;;;0.90;;
36457;SDS011;22480;50.546;12.292;2023-10-31T13:38:54;4.20;;;1.33;;
36457;SDS011;22480;50.546;12.292;2023-10-31T13:41:20;2.20;;;1.20;;
36457;SDS011;22480;50.546;12.292;2023-10-31T13:43:46;2.40;;;0.93;;
36457;SDS011;22480;50.546;12.292;2023-10-31T13:46:13;1.48;;;1.17;;
36457;SDS011;22480;50.546;12.292;2023-10-31T13:48:39;3.25;;;1.48;;
36457;SDS011;22480;50.546;12.292;2023-10-31T13:51:05;2.55;;;0.80;;
36457;SDS011;22480;50.546;12.292;2023-10-31T13:53:30;4.03;;;1.08;;
36457;SDS011;22480;50.546;12.292;2023-10-31T13:55:56;3.30;;;2.20;;
36457;SDS011;22480;50.546;12.292;2023-10-31T13:58:22;2.25;;;1.73;;
36457;SDS011;22480;50.546;12.292;2023-10-31T14:00:47;1.20;;;1.10;;
36457;SDS011;22480;50.546;12.292;2023-10-31T14:03:13;2.83;;;1.88;;
36457;SDS011;22480;50.546;12.292;2023-10-31T14:05:40;1.13;;;1.00;;
36457;SDS011;22480;50.546;12.292;2023-10-31T14:08:07;3.30;;;2.10;;
36457;SDS011;22480;50.546;12.292;2023-10-31T14:10:33;3.30;;;2.00;;
36457;SDS011;22480;50.546;12.292;2023-10-31T14:12:59;1.90;;;1.50;;
36457;SDS011;22480;50.546;12.292;2023-10-31T14:15:25;6.57;;;2.88;;
36457;SDS011;22480;50.546;12.292;2023-10-31T14:17:50;2.30;;;1.05;;
36457;SDS011;22480;50.546;12.292;2023-10-31T14:20:16;3.75;;;1.98;;
36457;SDS011;22480;50.546;12.292;2023-10-31T14:22:49;2.50;;;1.40;;
36457;SDS011;22480;50.546;12.292;2023-10-31T14:25:15;2.20;;;1.30;;
36457;SDS011;22480;50.546;12.292;2023-10-31T14:27:42;1.90;;;1.00;;
36457;SDS011;22480;50.546;12.292;2023-10-31T14:30:09;2.50;;;0.80;;
36457;SDS011;22480;50.546;12.292;2023-10-31T14:32:36;2.08;;;0.70;;
36457;SDS011;22480;50.546;12.292;2023-10-31T14:35:02;1.92;;;1.38;;
36457;SDS011;22480;50.546;12.292;2023-10-31T14:37:28;2.17;;;1.42;;
36457;SDS011;22480;50.546;12.292;2023-10-31T14:39:54;1.67;;;1.10;;
36457;SDS011;22480;50.546;12.292;2023-10-31T14:42:20;1.05;;;0.82;;
36457;SDS011;22480;50.546;12.292;2023-10-31T14:44:46;3.70;;;2.03;;
36457;SDS011;22480;50.546;12.292;2023-10-31T14:47:12;3.88;;;2.28;;